sensor_id;sensor_type;location;lat;lon;timestamp;P1;durP1;ratioP1;P2;durP2;ratioP2
74532;SDS011;63012;51.096;-115.366;2023-06-14T00:01:14;7.40;;;2.60;;
74532;SDS011;63012;51.096;-115.366;2023-06-14T00:03:41;6.70;;;2.00;;
74532;SDS011;63012;51.096;-115.366;2023-06-14T00:06:08;7.20;;;2.80;;
74532;SDS011;63012;51.096;-115.366;2023-06-14T00:08:35;6.00;;;2.60;;
74532;SDS011;63012;51.096;-115.366;2023-06-14T00:11:02;6.90;;;2.60;;
74532;SDS011;63012;51.096;-115.366;2023-06-14T00:13:29;7.40;;;2.70;;
74532;SDS011;63012;51.096;-115.366;2023-06-14T00:15:56;6.90;;;2.20;;
74532;SDS011;63012;51.096;-115.366;2023-06-14T00:18:23;8.80;;;3.30;;
74532;SDS011;63012;51.096;-115.366;2023-06-14T00:20:52;6.50;;;2.30;;
74532;SDS011;63012;51.096;-115.366;2023-06-14T00:23:20;7.10;;;2.70;;
74532;SDS011;63012;51.096;-115.366;2023-06-14T00:25:47;7.10;;;2.30;;
74532;SDS011;63012;51.096;-115.366;2023-06-14T00:28:14;6.60;;;2.50;;
74532;SDS011;63012;51.096;-115.366;2023-06-14T00:30:41;6.40;;;2.40;;
74532;SDS011;63012;51.096;-115.366;2023-06-14T00:33:10;6.50;;;2.60;;
74532;SDS011;63012;51.096;-115.366;2023-06-14T00:35:36;6.10;;;2.40;;
74532;SDS011;63012;51.096;-115.366;2023-06-14T00:38:04;6.80;;;2.60;;
74532;SDS011;63012;51.096;-115.366;2023-06-14T00:40:31;6.30;;;2.20;;
74532;SDS011;63012;51.096;-115.366;2023-06-14T00:42:58;6.70;;;2.80;;
74532;SDS011;63012;51.096;-115.366;2023-06-14T00:45:25;6.20;;;2.30;;
74532;SDS011;63012;51.096;-115.366;2023-06-14T00:47:52;6.00;;;2.50;;
74532;SDS011;63012;51.096;-115.366;2023-06-14T00:50:21;6.70;;;2.60;;
74532;SDS011;63012;51.096;-115.366;2023-06-14T00:52:50;7.30;;;2.80;;
74532;SDS011;63012;51.096;-115.366;2023-06-14T00:55:17;6.00;;;2.30;;
74532;SDS011;63012;51.096;-115.366;2023-06-14T00:57:44;8.30;;;3.00;;
74532;SDS011;63012;51.096;-115.366;2023-06-14T01:00:12;6.30;;;2.20;;
74532;SDS011;63012;51.096;-115.366;2023-06-14T01:02:40;6.20;;;2.50;;
74532;SDS011;63012;51.096;-115.366;2023-06-14T01:05:08;6.10;;;2.00;;
74532;SDS011;63012;51.096;-115.366;2023-06-14T01:07:49;6.80;;;2.20;;
74532;SDS011;63012;51.096;-115.366;2023-06-14T01:13:29;6.50;;;2.40;;
74532;SDS011;63012;51.096;-115.366;2023-06-14T01:16:00;6.10;;;2.40;;
74532;SDS011;63012;51.096;-115.366;2023-06-14T01:18:29;6.30;;;2.40;;
74532;SDS011;63012;51.096;-115.366;2023-06-14T01:20:56;5.70;;;2.00;;
74532;SDS011;63012;51.096;-115.366;2023-06-14T01:23:23;5.80;;;2.10;;
74532;SDS011;63012;51.096;-115.366;2023-06-14T01:25:51;6.40;;;2.40;;
74532;SDS011;63012;51.096;-115.366;2023-06-14T01:28:21;5.90;;;2.20;;
74532;SDS011;63012;51.096;-115.366;2023-06-14T01:30:53;5.70;;;2.00;;
74532;SDS011;63012;51.096;-115.366;2023-06-14T01:33:22;6.00;;;2.50;;
74532;SDS011;63012;51.096;-115.366;2023-06-14T01:35:53;5.70;;;2.00;;
74532;SDS011;63012;51.096;-115.366;2023-06-14T01:38:26;5.00;;;1.90;;
74532;SDS011;63012;51.096;-115.366;2023-06-14T01:40:56;6.10;;;1.80;;
74532;SDS011;63012;51.096;-115.366;2023-06-14T01:43:26;5.40;;;1.50;;
74532;SDS011;63012;51.096;-115.366;2023-06-14T01:45:57;5.30;;;1.40;;
74532;SDS011;63012;51.096;-115.366;2023-06-14T01:48:25;4.80;;;1.20;;
74532;SDS011;63012;51.096;-115.366;2023-06-14T01:50:52;5.30;;;1.60;;
74532;SDS011;63012;51.096;-115.366;2023-06-14T01:53:19;5.70;;;2.00;;
74532;SDS011;63012;51.096;-115.366;2023-06-14T01:55:46;4.70;;;1.50;;
74532;SDS011;63012;51.096;-115.366;2023-06-14T01:58:15;5.00;;;1.50;;
74532;SDS011;63012;51.096;-115.366;2023-06-14T02:00:42;4.70;;;1.40;;
74532;SDS011;63012;51.096;-115.366;2023-06-14T02:03:09;5.30;;;1.60;;
74532;SDS011;63012;51.096;-115.366;2023-06-14T02:05:38;5.50;;;1.40;;
74532;SDS011;63012;51.096;-115.366;2023-06-14T02:08:06;5.70;;;1.70;;
74532;SDS011;63012;51.096;-115.366;2023-06-14T02:10:33;7.20;;;1.60;;
74532;SDS011;63012;51.096;-115.366;2023-06-14T02:13:01;5.40;;;1.70;;
74532;SDS011;63012;51.096;-115.366;2023-06-14T02:15:28;5.90;;;1.70;;
74532;SDS011;63012;51.096;-115.366;2023-06-14T02:18:01;5.40;;;2.00;;
74532;SDS011;63012;51.096;-115.366;2023-06-14T02:20:29;5.50;;;1.60;;
74532;SDS011;63012;51.096;-115.366;2023-06-14T02:22:57;4.60;;;1.50;;
74532;SDS011;63012;51.096;-115.366;2023-06-14T02:25:24;4.50;;;1.40;;
74532;SDS011;63012;51.096;-115.366;2023-06-14T02:27:54;4.70;;;1.40;;
74532;SDS011;63012;51.096;-115.366;2023-06-14T02:30:21;5.00;;;1.60;;
74532;SDS011;63012;51.096;-115.366;2023-06-14T02:32:48;4.30;;;1.30;;
74532;SDS011;63012;51.096;-115.366;2023-06-14T02:35:17;4.80;;;1.40;;
74532;SDS011;63012;51.096;-115.366;2023-06-14T02:37:44;5.70;;;1.60;;
74532;SDS011;63012;51.096;-115.366;2023-06-14T02:40:12;5.50;;;2.10;;
74532;SDS011;63012;51.096;-115.366;2023-06-14T02:42:39;4.30;;;1.20;;
74532;SDS011;63012;51.096;-115.366;2023-06-14T02:45:06;4.40;;;1.10;;
74532;SDS011;63012;51.096;-115.366;2023-06-14T02:47:34;5.00;;;1.70;;
74532;SDS011;63012;51.096;-115.366;2023-06-14T02:50:01;5.00;;;1.20;;
74532;SDS011;63012;51.096;-115.366;2023-06-14T02:52:29;4.60;;;1.30;;
74532;SDS011;63012;51.096;-115.366;2023-06-14T02:54:56;4.40;;;1.60;;
74532;SDS011;63012;51.096;-115.366;2023-06-14T02:57:23;5.70;;;1.70;;
74532;SDS011;63012;51.096;-115.366;2023-06-14T02:59:50;4.20;;;1.10;;
74532;SDS011;63012;51.096;-115.366;2023-06-14T03:02:18;5.30;;;1.20;;
74532;SDS011;63012;51.096;-115.366;2023-06-14T03:04:45;4.10;;;1.20;;
74532;SDS011;63012;51.096;-115.366;2023-06-14T03:07:12;5.70;;;1.20;;
74532;SDS011;63012;51.096;-115.366;2023-06-14T03:09:45;4.90;;;1.10;;
74532;SDS011;63012;51.096;-115.366;2023-06-14T03:12:13;4.80;;;1.30;;
74532;SDS011;63012;51.096;-115.366;2023-06-14T03:14:41;4.70;;;1.40;;
74532;SDS011;63012;51.096;-115.366;2023-06-14T03:17:08;6.20;;;1.70;;
74532;SDS011;63012;51.096;-115.366;2023-06-14T03:19:35;5.00;;;1.60;;
74532;SDS011;63012;51.096;-115.366;2023-06-14T03:22:03;5.10;;;1.70;;
74532;SDS011;63012;51.096;-115.366;2023-06-14T03:24:30;4.50;;;1.30;;
74532;SDS011;63012;51.096;-115.366;2023-06-14T03:27:03;5.10;;;1.30;;
74532;SDS011;63012;51.096;-115.366;2023-06-14T03:29:30;4.70;;;1.20;;
74532;SDS011;63012;51.096;-115.366;2023-06-14T03:32:01;4.70;;;1.50;;
74532;SDS011;63012;51.096;-115.366;2023-06-14T03:34:29;4.20;;;1.30;;
74532;SDS011;63012;51.096;-115.366;2023-06-14T03:36:57;4.80;;;1.20;;
74532;SDS011;63012;51.096;-115.366;2023-06-14T03:39:24;4.10;;;0.90;;
74532;SDS011;63012;51.096;-115.366;2023-06-14T03:41:51;3.40;;;1.10;;
74532;SDS011;63012;51.096;-115.366;2023-06-14T03:44:19;4.20;;;1.00;;
74532;SDS011;63012;51.096;-115.366;2023-06-14T03:46:46;4.20;;;1.30;;
74532;SDS011;63012;51.096;-115.366;2023-06-14T03:49:13;5.30;;;1.10;;
74532;SDS011;63012;51.096;-115.366;2023-06-14T03:51:42;4.60;;;1.20;;
74532;SDS011;63012;51.096;-115.366;2023-06-14T03:54:09;4.20;;;1.10;;
74532;SDS011;63012;51.096;-115.366;2023-06-14T03:56:36;4.80;;;1.80;;
74532;SDS011;63012;51.096;-115.366;2023-06-14T03:59:03;7.80;;;1.20;;
74532;SDS011;63012;51.096;-115.366;2023-06-14T04:01:30;16.40;;;1.30;;
74532;SDS011;63012;51.096;-115.366;2023-06-14T04:03:59;5.80;;;1.10;;
74532;SDS011;63012;51.096;-115.366;2023-06-14T04:06:27;6.40;;;1.20;;
74532;SDS011;63012;51.096;-115.366;2023-06-14T04:08:59;3.80;;;0.90;;
74532;SDS011;63012;51.096;-115.366;2023-06-14T04:11:30;6.20;;;0.80;;
74532;SDS011;63012;51.096;-115.366;2023-06-14T04:13:58;8.50;;;0.90;;
74532;SDS011;63012;51.096;-115.366;2023-06-14T04:16:25;6.30;;;1.20;;
74532;SDS011;63012;51.096;-115.366;2023-06-14T04:18:53;4.50;;;0.80;;
74532;SDS011;63012;51.096;-115.366;2023-06-14T04:21:21;4.50;;;0.90;;
74532;SDS011;63012;51.096;-115.366;2023-06-14T04:23:49;3.10;;;0.60;;
74532;SDS011;63012;51.096;-115.366;2023-06-14T04:26:19;4.80;;;1.00;;
74532;SDS011;63012;51.096;-115.366;2023-06-14T04:28:47;4.00;;;0.70;;
74532;SDS011;63012;51.096;-115.366;2023-06-14T04:31:15;4.80;;;0.70;;
74532;SDS011;63012;51.096;-115.366;2023-06-14T04:33:42;3.80;;;0.70;;
74532;SDS011;63012;51.096;-115.366;2023-06-14T04:36:12;3.70;;;0.60;;
74532;SDS011;63012;51.096;-115.366;2023-06-14T04:38:39;6.80;;;0.70;;
74532;SDS011;63012;51.096;-115.366;2023-06-14T04:41:07;4.50;;;0.70;;
74532;SDS011;63012;51.096;-115.366;2023-06-14T04:43:38;3.30;;;0.90;;
74532;SDS011;63012;51.096;-115.366;2023-06-14T04:46:06;4.60;;;0.80;;
74532;SDS011;63012;51.096;-115.366;2023-06-14T04:48:41;3.20;;;0.40;;
74532;SDS011;63012;51.096;-115.366;2023-06-14T04:51:09;3.70;;;0.40;;
74532;SDS011;63012;51.096;-115.366;2023-06-14T04:53:36;5.80;;;0.70;;
74532;SDS011;63012;51.096;-115.366;2023-06-14T04:56:03;5.80;;;0.80;;
74532;SDS011;63012;51.096;-115.366;2023-06-14T04:58:30;5.70;;;0.80;;
74532;SDS011;63012;51.096;-115.366;2023-06-14T05:00:57;4.60;;;1.00;;
74532;SDS011;63012;51.096;-115.366;2023-06-14T05:03:29;2.70;;;0.40;;
74532;SDS011;63012;51.096;-115.366;2023-06-14T05:05:56;4.60;;;0.70;;
74532;SDS011;63012;51.096;-115.366;2023-06-14T05:08:23;4.00;;;0.80;;
74532;SDS011;63012;51.096;-115.366;2023-06-14T05:10:50;6.60;;;1.10;;
74532;SDS011;63012;51.096;-115.366;2023-06-14T05:13:18;3.00;;;0.60;;
74532;SDS011;63012;51.096;-115.366;2023-06-14T05:15:45;3.00;;;0.90;;
74532;SDS011;63012;51.096;-115.366;2023-06-14T05:18:13;3.60;;;0.60;;
74532;SDS011;63012;51.096;-115.366;2023-06-14T05:20:41;5.10;;;1.10;;
74532;SDS011;63012;51.096;-115.366;2023-06-14T05:23:09;3.30;;;0.60;;
74532;SDS011;63012;51.096;-115.366;2023-06-14T05:25:42;4.90;;;0.60;;
74532;SDS011;63012;51.096;-115.366;2023-06-14T05:28:10;3.10;;;0.40;;
74532;SDS011;63012;51.096;-115.366;2023-06-14T05:30:40;3.10;;;1.00;;
74532;SDS011;63012;51.096;-115.366;2023-06-14T05:33:07;3.00;;;0.60;;
74532;SDS011;63012;51.096;-115.366;2023-06-14T05:35:34;4.00;;;1.00;;
74532;SDS011;63012;51.096;-115.366;2023-06-14T05:38:01;2.30;;;0.50;;
74532;SDS011;63012;51.096;-115.366;2023-06-14T05:40:28;3.30;;;0.90;;
74532;SDS011;63012;51.096;-115.366;2023-06-14T05:42:56;4.40;;;0.60;;
74532;SDS011;63012;51.096;-115.366;2023-06-14T05:45:23;4.30;;;0.70;;
74532;SDS011;63012;51.096;-115.366;2023-06-14T05:47:50;4.40;;;0.70;;
74532;SDS011;63012;51.096;-115.366;2023-06-14T05:50:18;3.60;;;0.70;;
74532;SDS011;63012;51.096;-115.366;2023-06-14T05:52:45;4.30;;;0.60;;
74532;SDS011;63012;51.096;-115.366;2023-06-14T05:55:12;3.30;;;0.60;;
74532;SDS011;63012;51.096;-115.366;2023-06-14T05:57:39;4.00;;;0.60;;
74532;SDS011;63012;51.096;-115.366;2023-06-14T06:00:08;2.60;;;0.80;;
74532;SDS011;63012;51.096;-115.366;2023-06-14T06:02:43;4.30;;;0.60;;
74532;SDS011;63012;51.096;-115.366;2023-06-14T06:05:11;2.30;;;0.50;;
74532;SDS011;63012;51.096;-115.366;2023-06-14T06:07:39;3.00;;;0.70;;
74532;SDS011;63012;51.096;-115.366;2023-06-14T06:10:06;4.10;;;0.70;;
74532;SDS011;63012;51.096;-115.366;2023-06-14T06:12:34;2.70;;;0.70;;
74532;SDS011;63012;51.096;-115.366;2023-06-14T06:15:01;3.00;;;0.50;;
74532;SDS011;63012;51.096;-115.366;2023-06-14T06:17:29;3.00;;;0.50;;
74532;SDS011;63012;51.096;-115.366;2023-06-14T06:19:56;3.30;;;0.80;;
74532;SDS011;63012;51.096;-115.366;2023-06-14T06:22:23;3.30;;;0.80;;
74532;SDS011;63012;51.096;-115.366;2023-06-14T06:24:50;3.50;;;0.80;;
74532;SDS011;63012;51.096;-115.366;2023-06-14T06:27:17;3.10;;;0.50;;
74532;SDS011;63012;51.096;-115.366;2023-06-14T06:29:45;4.50;;;0.60;;
74532;SDS011;63012;51.096;-115.366;2023-06-14T06:32:12;4.30;;;0.50;;
74532;SDS011;63012;51.096;-115.366;2023-06-14T06:34:39;5.30;;;0.90;;
74532;SDS011;63012;51.096;-115.366;2023-06-14T06:37:06;2.50;;;0.60;;
74532;SDS011;63012;51.096;-115.366;2023-06-14T06:39:34;3.30;;;0.70;;
74532;SDS011;63012;51.096;-115.366;2023-06-14T06:42:01;2.50;;;0.60;;
74532;SDS011;63012;51.096;-115.366;2023-06-14T06:44:28;8.50;;;0.80;;
74532;SDS011;63012;51.096;-115.366;2023-06-14T06:46:55;3.30;;;0.70;;
74532;SDS011;63012;51.096;-115.366;2023-06-14T06:49:23;4.40;;;0.50;;
74532;SDS011;63012;51.096;-115.366;2023-06-14T06:52:08;3.80;;;0.50;;
74532;SDS011;63012;51.096;-115.366;2023-06-14T06:54:35;3.60;;;0.50;;
74532;SDS011;63012;51.096;-115.366;2023-06-14T06:57:02;3.10;;;0.50;;
74532;SDS011;63012;51.096;-115.366;2023-06-14T06:59:30;2.60;;;0.70;;
74532;SDS011;63012;51.096;-115.366;2023-06-14T07:01:57;3.40;;;0.40;;
74532;SDS011;63012;51.096;-115.366;2023-06-14T07:04:24;3.10;;;0.70;;
74532;SDS011;63012;51.096;-115.366;2023-06-14T07:06:51;2.10;;;0.40;;
74532;SDS011;63012;51.096;-115.366;2023-06-14T07:09:18;2.90;;;0.40;;
74532;SDS011;63012;51.096;-115.366;2023-06-14T07:11:46;3.30;;;0.60;;
74532;SDS011;63012;51.096;-115.366;2023-06-14T07:14:13;2.80;;;0.70;;
74532;SDS011;63012;51.096;-115.366;2023-06-14T07:16:40;2.30;;;0.50;;
74532;SDS011;63012;51.096;-115.366;2023-06-14T07:19:10;3.70;;;0.60;;
74532;SDS011;63012;51.096;-115.366;2023-06-14T07:21:37;3.80;;;0.60;;
74532;SDS011;63012;51.096;-115.366;2023-06-14T07:24:06;4.80;;;0.70;;
74532;SDS011;63012;51.096;-115.366;2023-06-14T07:26:33;3.30;;;0.60;;
74532;SDS011;63012;51.096;-115.366;2023-06-14T07:29:02;2.60;;;0.70;;
74532;SDS011;63012;51.096;-115.366;2023-06-14T07:31:29;3.60;;;0.60;;
74532;SDS011;63012;51.096;-115.366;2023-06-14T07:33:56;4.10;;;0.80;;
74532;SDS011;63012;51.096;-115.366;2023-06-14T07:36:23;2.90;;;0.60;;
74532;SDS011;63012;51.096;-115.366;2023-06-14T07:38:50;2.50;;;0.70;;
74532;SDS011;63012;51.096;-115.366;2023-06-14T07:41:18;3.30;;;0.40;;
74532;SDS011;63012;51.096;-115.366;2023-06-14T07:43:45;2.40;;;0.50;;
74532;SDS011;63012;51.096;-115.366;2023-06-14T07:46:12;2.10;;;0.40;;
74532;SDS011;63012;51.096;-115.366;2023-06-14T07:48:39;3.00;;;0.70;;
74532;SDS011;63012;51.096;-115.366;2023-06-14T07:51:06;3.80;;;0.70;;
74532;SDS011;63012;51.096;-115.366;2023-06-14T07:53:33;2.20;;;0.60;;
74532;SDS011;63012;51.096;-115.366;2023-06-14T07:56:00;3.40;;;0.60;;
74532;SDS011;63012;51.096;-115.366;2023-06-14T07:58:28;3.40;;;1.10;;
74532;SDS011;63012;51.096;-115.366;2023-06-14T08:00:55;3.50;;;0.80;;
74532;SDS011;63012;51.096;-115.366;2023-06-14T08:03:22;2.80;;;0.50;;
74532;SDS011;63012;51.096;-115.366;2023-06-14T08:05:50;3.60;;;0.60;;
74532;SDS011;63012;51.096;-115.366;2023-06-14T08:08:17;2.80;;;0.60;;
74532;SDS011;63012;51.096;-115.366;2023-06-14T08:10:44;2.40;;;0.60;;
74532;SDS011;63012;51.096;-115.366;2023-06-14T08:13:11;3.50;;;0.60;;
74532;SDS011;63012;51.096;-115.366;2023-06-14T08:15:39;3.00;;;0.50;;
74532;SDS011;63012;51.096;-115.366;2023-06-14T08:18:06;3.30;;;0.80;;
74532;SDS011;63012;51.096;-115.366;2023-06-14T08:20:33;3.80;;;0.50;;
74532;SDS011;63012;51.096;-115.366;2023-06-14T08:23:02;2.80;;;0.50;;
74532;SDS011;63012;51.096;-115.366;2023-06-14T08:25:30;3.00;;;0.50;;
74532;SDS011;63012;51.096;-115.366;2023-06-14T08:27:58;2.30;;;0.40;;
74532;SDS011;63012;51.096;-115.366;2023-06-14T08:30:26;3.60;;;0.50;;
74532;SDS011;63012;51.096;-115.366;2023-06-14T08:32:53;2.90;;;0.60;;
74532;SDS011;63012;51.096;-115.366;2023-06-14T08:35:22;2.80;;;0.70;;
74532;SDS011;63012;51.096;-115.366;2023-06-14T08:37:49;2.90;;;0.90;;
74532;SDS011;63012;51.096;-115.366;2023-06-14T08:40:21;2.20;;;0.60;;
74532;SDS011;63012;51.096;-115.366;2023-06-14T08:42:54;1.80;;;0.40;;
74532;SDS011;63012;51.096;-115.366;2023-06-14T08:45:22;1.70;;;0.30;;
74532;SDS011;63012;51.096;-115.366;2023-06-14T08:47:51;2.00;;;0.40;;
74532;SDS011;63012;51.096;-115.366;2023-06-14T08:50:27;2.90;;;0.50;;
74532;SDS011;63012;51.096;-115.366;2023-06-14T08:53:01;2.30;;;0.50;;
74532;SDS011;63012;51.096;-115.366;2023-06-14T08:55:30;2.20;;;0.40;;
74532;SDS011;63012;51.096;-115.366;2023-06-14T08:57:59;2.50;;;0.40;;
74532;SDS011;63012;51.096;-115.366;2023-06-14T09:00:27;3.20;;;0.40;;
74532;SDS011;63012;51.096;-115.366;2023-06-14T09:02:55;2.10;;;0.50;;
74532;SDS011;63012;51.096;-115.366;2023-06-14T09:05:27;2.40;;;0.50;;
74532;SDS011;63012;51.096;-115.366;2023-06-14T09:07:54;2.30;;;0.40;;
74532;SDS011;63012;51.096;-115.366;2023-06-14T09:10:27;2.60;;;0.70;;
74532;SDS011;63012;51.096;-115.366;2023-06-14T09:12:55;2.10;;;0.30;;
74532;SDS011;63012;51.096;-115.366;2023-06-14T09:15:22;3.20;;;1.00;;
74532;SDS011;63012;51.096;-115.366;2023-06-14T09:17:49;2.30;;;0.50;;
74532;SDS011;63012;51.096;-115.366;2023-06-14T09:20:17;2.30;;;0.40;;
74532;SDS011;63012;51.096;-115.366;2023-06-14T09:22:45;3.50;;;0.80;;
74532;SDS011;63012;51.096;-115.366;2023-06-14T09:25:12;3.10;;;0.50;;
74532;SDS011;63012;51.096;-115.366;2023-06-14T09:27:42;1.90;;;0.50;;
74532;SDS011;63012;51.096;-115.366;2023-06-14T09:30:09;2.00;;;0.40;;
74532;SDS011;63012;51.096;-115.366;2023-06-14T09:32:37;2.20;;;0.60;;
74532;SDS011;63012;51.096;-115.366;2023-06-14T09:35:08;2.70;;;0.30;;
74532;SDS011;63012;51.096;-115.366;2023-06-14T09:37:36;2.40;;;0.60;;
74532;SDS011;63012;51.096;-115.366;2023-06-14T09:40:06;2.40;;;0.60;;
74532;SDS011;63012;51.096;-115.366;2023-06-14T09:42:33;3.50;;;0.80;;
74532;SDS011;63012;51.096;-115.366;2023-06-14T09:45:03;3.20;;;0.40;;
74532;SDS011;63012;51.096;-115.366;2023-06-14T09:47:31;2.60;;;0.60;;
74532;SDS011;63012;51.096;-115.366;2023-06-14T09:49:58;2.40;;;0.60;;
74532;SDS011;63012;51.096;-115.366;2023-06-14T09:52:27;2.30;;;0.70;;
74532;SDS011;63012;51.096;-115.366;2023-06-14T09:54:56;2.20;;;0.40;;
74532;SDS011;63012;51.096;-115.366;2023-06-14T09:57:27;2.40;;;0.70;;
74532;SDS011;63012;51.096;-115.366;2023-06-14T10:00:01;2.20;;;0.40;;
74532;SDS011;63012;51.096;-115.366;2023-06-14T10:02:36;3.50;;;0.80;;
74532;SDS011;63012;51.096;-115.366;2023-06-14T10:05:06;2.90;;;0.50;;
74532;SDS011;63012;51.096;-115.366;2023-06-14T10:07:55;1.90;;;0.40;;
74532;SDS011;63012;51.096;-115.366;2023-06-14T10:10:26;5.70;;;0.50;;
74532;SDS011;63012;51.096;-115.366;2023-06-14T10:12:54;2.70;;;0.50;;
74532;SDS011;63012;51.096;-115.366;2023-06-14T10:15:38;3.80;;;0.40;;
74532;SDS011;63012;51.096;-115.366;2023-06-14T10:18:40;3.50;;;0.50;;
74532;SDS011;63012;51.096;-115.366;2023-06-14T10:24:06;2.60;;;0.90;;
74532;SDS011;63012;51.096;-115.366;2023-06-14T10:26:51;3.20;;;0.70;;
74532;SDS011;63012;51.096;-115.366;2023-06-14T10:29:20;2.20;;;0.70;;
74532;SDS011;63012;51.096;-115.366;2023-06-14T10:31:50;2.10;;;0.50;;
74532;SDS011;63012;51.096;-115.366;2023-06-14T10:34:29;2.90;;;0.60;;
74532;SDS011;63012;51.096;-115.366;2023-06-14T10:37:06;3.10;;;0.50;;
74532;SDS011;63012;51.096;-115.366;2023-06-14T10:39:44;2.40;;;0.60;;
74532;SDS011;63012;51.096;-115.366;2023-06-14T10:42:13;2.00;;;0.40;;
74532;SDS011;63012;51.096;-115.366;2023-06-14T10:44:51;2.40;;;0.60;;
74532;SDS011;63012;51.096;-115.366;2023-06-14T10:47:34;2.40;;;0.60;;
74532;SDS011;63012;51.096;-115.366;2023-06-14T10:50:10;3.90;;;0.70;;
74532;SDS011;63012;51.096;-115.366;2023-06-14T10:52:42;2.20;;;0.40;;
74532;SDS011;63012;51.096;-115.366;2023-06-14T10:55:14;2.20;;;0.40;;
74532;SDS011;63012;51.096;-115.366;2023-06-14T10:57:48;2.40;;;0.80;;
74532;SDS011;63012;51.096;-115.366;2023-06-14T11:00:25;2.40;;;0.60;;
74532;SDS011;63012;51.096;-115.366;2023-06-14T11:05:49;3.00;;;0.70;;
74532;SDS011;63012;51.096;-115.366;2023-06-14T11:11:12;2.50;;;0.60;;
74532;SDS011;63012;51.096;-115.366;2023-06-14T11:13:42;1.90;;;0.50;;
74532;SDS011;63012;51.096;-115.366;2023-06-14T11:16:14;2.30;;;0.70;;
74532;SDS011;63012;51.096;-115.366;2023-06-14T11:18:42;2.50;;;0.60;;
74532;SDS011;63012;51.096;-115.366;2023-06-14T11:21:10;2.70;;;0.90;;
74532;SDS011;63012;51.096;-115.366;2023-06-14T11:23:37;3.90;;;0.80;;
74532;SDS011;63012;51.096;-115.366;2023-06-14T11:26:04;3.50;;;0.50;;
74532;SDS011;63012;51.096;-115.366;2023-06-14T11:28:38;1.70;;;0.50;;
74532;SDS011;63012;51.096;-115.366;2023-06-14T11:31:06;3.40;;;0.70;;
74532;SDS011;63012;51.096;-115.366;2023-06-14T11:33:34;2.90;;;0.50;;
74532;SDS011;63012;51.096;-115.366;2023-06-14T11:36:05;2.80;;;0.60;;
74532;SDS011;63012;51.096;-115.366;2023-06-14T11:38:37;3.00;;;0.70;;
74532;SDS011;63012;51.096;-115.366;2023-06-14T11:41:04;2.30;;;0.40;;
74532;SDS011;63012;51.096;-115.366;2023-06-14T11:43:31;2.00;;;0.40;;
74532;SDS011;63012;51.096;-115.366;2023-06-14T11:46:01;2.40;;;0.40;;
74532;SDS011;63012;51.096;-115.366;2023-06-14T11:48:43;2.50;;;0.50;;
74532;SDS011;63012;51.096;-115.366;2023-06-14T11:51:11;2.90;;;0.60;;
74532;SDS011;63012;51.096;-115.366;2023-06-14T11:53:38;1.60;;;0.30;;
74532;SDS011;63012;51.096;-115.366;2023-06-14T11:56:06;3.40;;;0.60;;
74532;SDS011;63012;51.096;-115.366;2023-06-14T11:58:33;3.50;;;0.40;;
74532;SDS011;63012;51.096;-115.366;2023-06-14T12:01:02;2.90;;;0.70;;
74532;SDS011;63012;51.096;-115.366;2023-06-14T12:03:30;3.60;;;0.70;;
74532;SDS011;63012;51.096;-115.366;2023-06-14T12:06:09;2.50;;;0.60;;
74532;SDS011;63012;51.096;-115.366;2023-06-14T12:08:38;5.00;;;1.00;;
74532;SDS011;63012;51.096;-115.366;2023-06-14T12:11:13;3.60;;;0.70;;
74532;SDS011;63012;51.096;-115.366;2023-06-14T12:13:44;4.00;;;0.40;;
74532;SDS011;63012;51.096;-115.366;2023-06-14T12:16:12;3.80;;;0.60;;
74532;SDS011;63012;51.096;-115.366;2023-06-14T12:18:40;3.40;;;0.40;;
74532;SDS011;63012;51.096;-115.366;2023-06-14T12:21:10;3.60;;;0.50;;
74532;SDS011;63012;51.096;-115.366;2023-06-14T12:23:47;4.20;;;0.60;;
74532;SDS011;63012;51.096;-115.366;2023-06-14T12:26:18;4.20;;;0.80;;
74532;SDS011;63012;51.096;-115.366;2023-06-14T12:28:47;4.00;;;0.70;;
74532;SDS011;63012;51.096;-115.366;2023-06-14T12:31:16;3.90;;;0.70;;
74532;SDS011;63012;51.096;-115.366;2023-06-14T12:33:45;3.70;;;0.40;;
74532;SDS011;63012;51.096;-115.366;2023-06-14T12:36:14;3.90;;;0.80;;
74532;SDS011;63012;51.096;-115.366;2023-06-14T12:38:43;3.00;;;0.60;;
74532;SDS011;63012;51.096;-115.366;2023-06-14T12:41:11;4.90;;;0.50;;
74532;SDS011;63012;51.096;-115.366;2023-06-14T12:43:40;6.20;;;0.70;;
74532;SDS011;63012;51.096;-115.366;2023-06-14T12:46:07;3.60;;;0.80;;
74532;SDS011;63012;51.096;-115.366;2023-06-14T12:48:34;4.60;;;0.70;;
74532;SDS011;63012;51.096;-115.366;2023-06-14T12:51:00;3.10;;;0.40;;
74532;SDS011;63012;51.096;-115.366;2023-06-14T12:53:28;4.50;;;0.70;;
74532;SDS011;63012;51.096;-115.366;2023-06-14T12:55:55;5.00;;;0.90;;
74532;SDS011;63012;51.096;-115.366;2023-06-14T12:58:22;4.70;;;0.50;;
74532;SDS011;63012;51.096;-115.366;2023-06-14T13:00:50;6.20;;;0.80;;
74532;SDS011;63012;51.096;-115.366;2023-06-14T13:03:17;4.50;;;0.90;;
74532;SDS011;63012;51.096;-115.366;2023-06-14T13:05:45;3.60;;;0.60;;
74532;SDS011;63012;51.096;-115.366;2023-06-14T13:08:11;3.80;;;0.80;;
74532;SDS011;63012;51.096;-115.366;2023-06-14T13:10:39;3.40;;;0.60;;
74532;SDS011;63012;51.096;-115.366;2023-06-14T13:13:06;3.90;;;0.50;;
74532;SDS011;63012;51.096;-115.366;2023-06-14T13:15:33;3.90;;;0.50;;
74532;SDS011;63012;51.096;-115.366;2023-06-14T13:18:00;3.00;;;0.70;;
74532;SDS011;63012;51.096;-115.366;2023-06-14T13:20:29;4.00;;;0.70;;
74532;SDS011;63012;51.096;-115.366;2023-06-14T13:22:56;5.40;;;0.60;;
74532;SDS011;63012;51.096;-115.366;2023-06-14T13:25:24;3.00;;;0.80;;
74532;SDS011;63012;51.096;-115.366;2023-06-14T13:27:51;4.00;;;0.40;;
74532;SDS011;63012;51.096;-115.366;2023-06-14T13:30:18;4.30;;;0.50;;
74532;SDS011;63012;51.096;-115.366;2023-06-14T13:32:45;2.30;;;0.50;;
74532;SDS011;63012;51.096;-115.366;2023-06-14T13:35:13;3.80;;;1.10;;
74532;SDS011;63012;51.096;-115.366;2023-06-14T13:37:40;3.70;;;0.60;;
74532;SDS011;63012;51.096;-115.366;2023-06-14T13:40:07;3.00;;;0.80;;
74532;SDS011;63012;51.096;-115.366;2023-06-14T13:42:35;5.70;;;0.80;;
74532;SDS011;63012;51.096;-115.366;2023-06-14T13:45:03;3.00;;;0.70;;
74532;SDS011;63012;51.096;-115.366;2023-06-14T13:47:31;3.30;;;0.60;;
74532;SDS011;63012;51.096;-115.366;2023-06-14T13:49:58;3.90;;;0.70;;
74532;SDS011;63012;51.096;-115.366;2023-06-14T13:52:25;3.60;;;0.90;;
74532;SDS011;63012;51.096;-115.366;2023-06-14T13:54:53;3.50;;;0.70;;
74532;SDS011;63012;51.096;-115.366;2023-06-14T13:57:20;4.10;;;0.40;;
74532;SDS011;63012;51.096;-115.366;2023-06-14T13:59:47;5.60;;;1.00;;
74532;SDS011;63012;51.096;-115.366;2023-06-14T14:02:14;2.90;;;0.60;;
74532;SDS011;63012;51.096;-115.366;2023-06-14T14:04:41;3.90;;;0.70;;
74532;SDS011;63012;51.096;-115.366;2023-06-14T14:07:08;3.70;;;0.80;;
74532;SDS011;63012;51.096;-115.366;2023-06-14T14:09:35;4.90;;;1.30;;
74532;SDS011;63012;51.096;-115.366;2023-06-14T14:12:04;4.80;;;0.60;;
74532;SDS011;63012;51.096;-115.366;2023-06-14T14:14:32;3.80;;;1.00;;
74532;SDS011;63012;51.096;-115.366;2023-06-14T14:16:59;2.40;;;0.40;;
74532;SDS011;63012;51.096;-115.366;2023-06-14T14:19:26;3.80;;;0.70;;
74532;SDS011;63012;51.096;-115.366;2023-06-14T14:21:53;3.10;;;0.50;;
74532;SDS011;63012;51.096;-115.366;2023-06-14T14:24:21;3.50;;;0.60;;
74532;SDS011;63012;51.096;-115.366;2023-06-14T14:26:48;2.80;;;0.60;;
74532;SDS011;63012;51.096;-115.366;2023-06-14T14:29:16;2.20;;;0.40;;